createdAt,value
2023-02-15T00:00:21.729Z,19.67
2023-02-15T00:02:42.938Z,19.60
2023-02-15T00:05:04.310Z,19.33
2023-02-15T00:07:25.503Z,19.90
2023-02-15T00:09:47.262Z,21.13
2023-02-15T00:12:08.482Z,24.70
2023-02-15T00:14:30.261Z,23.77
2023-02-15T00:16:54.154Z,26.30
2023-02-15T00:19:16.221Z,21.70
2023-02-15T00:21:37.749Z,24.60
2023-02-15T00:23:59.780Z,22.33
2023-02-15T00:26:20.797Z,21.80
2023-02-15T00:28:42.133Z,20.97
2023-02-15T00:31:07.406Z,21.27
2023-02-15T00:33:29.653Z,21.37
2023-02-15T00:35:57.450Z,20.57
2023-02-15T00:38:18.774Z,19.83
2023-02-15T00:40:40.195Z,20.10
2023-02-15T00:43:01.784Z,20.10
2023-02-15T00:45:23.179Z,19.50
2023-02-15T00:47:44.194Z,21.03
2023-02-15T00:50:08.049Z,21.63
2023-02-15T00:52:28.900Z,22.93
2023-02-15T00:54:50.098Z,23.07
2023-02-15T00:57:11.311Z,23.37
2023-02-15T00:59:32.595Z,24.27
2023-02-15T01:01:53.838Z,23.27
2023-02-15T01:04:15.072Z,22.47
2023-02-15T01:06:38.876Z,22.07
2023-02-15T01:09:00.218Z,21.80
2023-02-15T01:11:23.733Z,21.17
2023-02-15T01:13:44.664Z,20.80
2023-02-15T01:16:06.231Z,20.60
2023-02-15T01:18:28.465Z,21.43
2023-02-15T01:20:50.020Z,20.50
2023-02-15T01:23:12.687Z,21.00
2023-02-15T01:25:34.966Z,20.13
2023-02-15T01:27:56.125Z,20.17
2023-02-15T01:30:17.835Z,19.13
2023-02-15T01:32:39.061Z,19.20
2023-02-15T01:35:00.179Z,18.77
2023-02-15T01:37:21.502Z,19.17
2023-02-15T01:39:44.096Z,18.60
2023-02-15T01:42:05.525Z,19.30
2023-02-15T01:44:46.307Z,19.83
2023-02-15T01:47:07.523Z,19.70
2023-02-15T01:49:29.401Z,18.77
2023-02-15T01:51:52.171Z,19.97
2023-02-15T01:54:22.883Z,19.77
2023-02-15T01:56:45.479Z,20.20
2023-02-15T01:59:07.865Z,19.60
2023-02-15T02:01:29.480Z,18.90
2023-02-15T02:03:57.092Z,20.00
2023-02-15T02:06:19.021Z,20.17
2023-02-15T02:08:40.432Z,20.67
2023-02-15T02:11:01.517Z,20.97
2023-02-15T02:13:24.401Z,20.33
2023-02-15T02:15:49.949Z,19.90
2023-02-15T02:18:17.009Z,19.47
2023-02-15T02:20:51.702Z,18.57
2023-02-15T02:23:26.351Z,19.67
2023-02-15T02:26:08.366Z,20.57
2023-02-15T02:28:44.374Z,19.53
2023-02-15T02:31:22.692Z,19.80
2023-02-15T02:33:49.274Z,21.07
2023-02-15T02:36:16.813Z,19.37
2023-02-15T02:38:44.002Z,20.17
2023-02-15T02:41:11.537Z,20.40
2023-02-15T02:43:35.216Z,19.23
2023-02-15T02:45:59.749Z,19.07
2023-02-15T02:48:21.961Z,19.10
2023-02-15T02:50:44.281Z,20.30
2023-02-15T02:53:05.498Z,18.50
2023-02-15T02:55:29.579Z,18.30
2023-02-15T02:57:55.203Z,19.40
2023-02-15T03:00:17.629Z,19.73
2023-02-15T03:02:39.977Z,19.73
2023-02-15T03:05:07.298Z,19.17
2023-02-15T03:07:31.123Z,19.33
2023-02-15T03:09:53.597Z,19.50
2023-02-15T03:12:16.402Z,19.67
2023-02-15T03:14:37.870Z,19.33
2023-02-15T03:16:59.661Z,19.80
2023-02-15T03:19:24.885Z,19.97
2023-02-15T03:21:58.444Z,19.87
2023-02-15T03:24:22.656Z,19.60
2023-02-15T03:26:45.256Z,19.23
2023-02-15T03:29:07.636Z,19.07
2023-02-15T03:31:31.982Z,19.47
2023-02-15T03:33:55.669Z,19.40
2023-02-15T03:36:20.867Z,18.90
2023-02-15T03:38:45.121Z,18.43
2023-02-15T03:41:11.724Z,18.37
2023-02-15T03:43:34.695Z,19.43
2023-02-15T03:45:58.664Z,18.77
2023-02-15T03:48:20.028Z,19.23
2023-02-15T03:50:59.033Z,18.03
2023-02-15T03:53:23.124Z,18.70
2023-02-15T03:55:44.215Z,18.77
2023-02-15T03:58:24.435Z,17.80
2023-02-15T04:01:07.727Z,18.20
2023-02-15T04:03:33.248Z,18.30
2023-02-15T04:05:54.503Z,18.87
2023-02-15T04:08:15.723Z,19.23
2023-02-15T04:10:54.467Z,19.90
2023-02-15T04:13:17.118Z,18.70
2023-02-15T04:15:55.743Z,18.73
2023-02-15T04:18:16.957Z,20.60
2023-02-15T04:20:55.804Z,20.00
2023-02-15T04:23:34.715Z,20.03
2023-02-15T04:25:55.998Z,20.03
2023-02-15T04:28:18.567Z,21.60
2023-02-15T04:30:39.866Z,19.90
2023-02-15T04:33:01.138Z,20.07
2023-02-15T04:35:23.292Z,20.40
2023-02-15T04:37:44.922Z,20.53
2023-02-15T04:40:06.564Z,20.00
2023-02-15T04:42:27.803Z,19.00
2023-02-15T04:44:50.120Z,19.00
2023-02-15T04:47:11.433Z,20.27
2023-02-15T04:49:32.807Z,18.93
2023-02-15T04:51:54.171Z,18.10
2023-02-15T04:54:15.466Z,18.53
2023-02-15T04:56:38.686Z,18.10
2023-02-15T04:58:59.898Z,17.00
2023-02-15T05:01:22.664Z,18.10
2023-02-15T05:03:43.870Z,18.60
2023-02-15T05:06:05.645Z,17.70
2023-02-15T05:08:26.929Z,18.93
2023-02-15T05:10:49.553Z,19.23
2023-02-15T05:13:10.578Z,18.63
2023-02-15T05:15:31.636Z,18.13
2023-02-15T05:17:54.265Z,19.70
2023-02-15T05:20:15.510Z,18.80
2023-02-15T05:22:36.916Z,18.67
2023-02-15T05:25:15.710Z,18.30
2023-02-15T05:27:54.772Z,18.50
2023-02-15T05:30:16.201Z,19.47
2023-02-15T05:32:37.425Z,19.87
2023-02-15T05:35:00.082Z,19.73
2023-02-15T05:37:21.542Z,19.30
2023-02-15T05:39:42.454Z,18.93
2023-02-15T05:42:03.611Z,18.83
2023-02-15T05:44:25.135Z,22.07
2023-02-15T05:46:46.286Z,20.53
2023-02-15T05:49:07.534Z,20.43
2023-02-15T05:51:30.222Z,21.67
2023-02-15T05:53:51.278Z,23.80
2023-02-15T05:56:13.189Z,22.70
2023-02-15T05:58:35.332Z,21.70
2023-02-15T06:00:56.774Z,26.00
2023-02-15T06:03:17.866Z,24.80
2023-02-15T06:05:39.197Z,23.60
2023-02-15T06:08:02.170Z,23.17
2023-02-15T06:10:23.550Z,21.23
2023-02-15T06:12:45.840Z,21.87
2023-02-15T06:15:07.416Z,22.37
2023-02-15T06:17:28.396Z,23.03
2023-02-15T06:19:50.118Z,22.13
2023-02-15T06:22:11.492Z,21.63
2023-02-15T06:24:34.059Z,21.53
2023-02-15T06:26:55.437Z,20.23
2023-02-15T06:29:16.711Z,20.60
2023-02-15T06:31:38.277Z,20.03
2023-02-15T06:34:02.005Z,19.27
2023-02-15T06:36:23.027Z,20.60
2023-02-15T06:38:44.407Z,20.13
2023-02-15T06:41:07.153Z,20.53
2023-02-15T06:43:28.471Z,20.23
2023-02-15T06:45:49.654Z,20.20
2023-02-15T06:48:12.137Z,19.23
2023-02-15T06:50:33.205Z,18.87
2023-02-15T06:52:57.297Z,20.13
2023-02-15T06:55:18.261Z,18.77
2023-02-15T06:57:40.809Z,19.90
2023-02-15T07:00:02.314Z,20.07
2023-02-15T07:02:23.439Z,19.43
2023-02-15T07:04:44.822Z,19.40
2023-02-15T07:07:06.519Z,22.00
2023-02-15T07:09:28.107Z,23.07
2023-02-15T07:12:06.554Z,22.97
2023-02-15T07:14:29.185Z,22.80
2023-02-15T07:16:50.481Z,22.60
2023-02-15T07:19:11.742Z,21.27
2023-02-15T07:21:32.866Z,22.80
2023-02-15T07:23:54.661Z,23.40
2023-02-15T07:26:15.573Z,23.00
2023-02-15T07:28:37.148Z,21.53
2023-02-15T07:31:00.504Z,21.07
2023-02-15T07:33:24.848Z,20.40
2023-02-15T07:35:50.415Z,20.43
2023-02-15T07:38:11.554Z,19.57
2023-02-15T07:40:32.707Z,19.83
2023-02-15T07:42:55.646Z,20.00
2023-02-15T07:45:17.164Z,19.47
2023-02-15T07:47:39.653Z,19.57
2023-02-15T07:50:00.899Z,20.93
2023-02-15T07:52:22.286Z,19.90
2023-02-15T07:54:43.732Z,19.87
2023-02-15T07:57:05.115Z,20.73
2023-02-15T07:59:26.428Z,21.87
2023-02-15T08:01:47.671Z,21.43
2023-02-15T08:04:12.081Z,21.00
2023-02-15T08:06:34.191Z,19.73
2023-02-15T08:08:58.712Z,19.93
2023-02-15T08:11:37.435Z,18.50
2023-02-15T08:14:00.348Z,20.03
2023-02-15T08:16:22.437Z,19.23
2023-02-15T08:18:43.432Z,21.17
2023-02-15T08:21:06.495Z,20.60
2023-02-15T08:23:27.711Z,18.80
2023-02-15T08:25:49.034Z,20.10
2023-02-15T08:28:10.360Z,21.07
2023-02-15T08:30:32.131Z,20.87
2023-02-15T08:32:53.843Z,20.23
2023-02-15T08:35:15.071Z,20.10
2023-02-15T08:37:37.689Z,19.97
2023-02-15T08:39:58.944Z,19.03
2023-02-15T08:42:21.613Z,19.43
2023-02-15T08:44:43.008Z,20.73
2023-02-15T08:47:04.988Z,21.97
2023-02-15T08:49:26.623Z,20.33
2023-02-15T08:51:48.342Z,20.83
2023-02-15T08:54:12.189Z,21.30
2023-02-15T08:56:35.049Z,21.53
2023-02-15T08:58:56.757Z,20.83
2023-02-15T09:01:19.082Z,20.97
2023-02-15T09:03:40.474Z,20.33
2023-02-15T09:06:01.989Z,20.27
2023-02-15T09:08:23.025Z,20.67
2023-02-15T09:10:45.662Z,20.87
2023-02-15T09:13:06.942Z,21.13
2023-02-15T09:15:28.172Z,20.60
2023-02-15T09:17:49.585Z,20.00
2023-02-15T09:20:11.089Z,19.57
2023-02-15T09:22:32.213Z,19.70
2023-02-15T09:24:53.496Z,18.80
2023-02-15T09:27:16.065Z,18.50
2023-02-15T09:29:37.431Z,18.93
2023-02-15T09:31:58.816Z,18.70
2023-02-15T09:34:21.274Z,18.77
2023-02-15T09:36:42.377Z,18.10
2023-02-15T09:39:06.868Z,17.33
2023-02-15T09:41:46.019Z,17.00
2023-02-15T09:44:16.104Z,16.73
2023-02-15T09:46:43.852Z,17.80
2023-02-15T09:49:10.799Z,17.30
2023-02-15T09:51:38.870Z,16.40
2023-02-15T09:54:16.056Z,16.60
2023-02-15T09:56:40.299Z,17.00
2023-02-15T09:59:06.010Z,17.63
2023-02-15T10:01:33.138Z,17.37
2023-02-15T10:04:01.535Z,16.80
2023-02-15T10:06:33.855Z,16.23
2023-02-15T10:09:07.532Z,18.33
2023-02-15T10:11:42.692Z,16.03
2023-02-15T10:14:10.573Z,15.70
2023-02-15T10:16:38.772Z,14.60
2023-02-15T10:19:05.303Z,15.10
2023-02-15T10:21:32.639Z,16.00
2023-02-15T10:24:03.275Z,16.53
2023-02-15T10:26:27.619Z,16.50
2023-02-15T10:28:50.880Z,16.37
2023-02-15T10:31:15.101Z,18.43
2023-02-15T10:33:41.353Z,18.00
2023-02-15T10:36:08.064Z,16.63
2023-02-15T10:38:33.525Z,16.47
2023-02-15T10:41:01.579Z,16.87
2023-02-15T10:43:27.500Z,17.53
2023-02-15T10:45:52.199Z,15.93
2023-02-15T10:48:25.944Z,16.23
2023-02-15T10:50:51.529Z,17.93
2023-02-15T10:53:21.930Z,15.00
2023-02-15T10:55:47.645Z,16.00
2023-02-15T10:58:14.417Z,15.17
2023-02-15T11:00:39.316Z,15.20
2023-02-15T11:03:10.832Z,14.43
2023-02-15T11:05:37.517Z,14.70
2023-02-15T11:08:01.463Z,14.37
2023-02-15T11:10:28.582Z,14.50
2023-02-15T11:12:50.654Z,14.63
2023-02-15T11:15:17.282Z,14.73
2023-02-15T11:17:40.352Z,14.67
2023-02-15T11:20:05.462Z,15.37
2023-02-15T11:22:26.894Z,14.67
2023-02-15T11:24:49.623Z,15.30
2023-02-15T11:27:18.440Z,14.50
2023-02-15T11:29:42.427Z,14.87
2023-02-15T11:32:05.567Z,13.57
2023-02-15T11:34:29.374Z,13.77
2023-02-15T11:36:52.408Z,15.37
2023-02-15T11:39:15.061Z,14.60
2023-02-15T11:41:39.913Z,13.73
2023-02-15T11:44:06.791Z,13.47
2023-02-15T11:46:28.451Z,13.97
2023-02-15T11:48:49.872Z,13.60
2023-02-15T11:51:13.745Z,13.60
2023-02-15T11:53:36.923Z,12.83
2023-02-15T11:55:58.102Z,13.80
2023-02-15T11:58:29.182Z,13.60
2023-02-15T12:00:52.126Z,13.00
2023-02-15T12:03:16.249Z,12.73
2023-02-15T12:05:38.132Z,13.23
2023-02-15T12:08:04.903Z,13.20
2023-02-15T12:10:26.856Z,11.77
2023-02-15T12:12:48.261Z,12.17
2023-02-15T12:15:11.949Z,13.60
2023-02-15T12:17:34.828Z,12.70
2023-02-15T12:19:57.526Z,12.50
2023-02-15T12:22:26.015Z,12.50
2023-02-15T12:24:48.340Z,11.53
2023-02-15T12:27:15.857Z,12.10
2023-02-15T12:29:41.281Z,11.53
2023-02-15T12:32:03.949Z,11.90
2023-02-15T12:34:27.561Z,11.47
2023-02-15T12:36:51.687Z,11.63
2023-02-15T12:39:23.177Z,10.53
2023-02-15T12:41:46.747Z,9.87
2023-02-15T12:44:17.129Z,11.53
2023-02-15T12:46:38.579Z,9.30
2023-02-15T12:49:20.588Z,9.43
2023-02-15T12:51:45.366Z,10.63
2023-02-15T12:54:23.466Z,10.33
2023-02-15T12:56:44.735Z,10.57
2023-02-15T12:59:06.879Z,11.37
2023-02-15T13:01:33.574Z,10.67
2023-02-15T13:03:59.923Z,11.43
2023-02-15T13:06:22.809Z,10.50
2023-02-15T13:08:47.921Z,11.70
2023-02-15T13:11:11.070Z,10.93
2023-02-15T13:13:34.330Z,11.30
2023-02-15T13:15:56.785Z,11.03
2023-02-15T13:18:18.391Z,11.10
2023-02-15T13:20:42.066Z,10.87
2023-02-15T13:23:06.244Z,13.67
2023-02-15T13:25:28.957Z,13.00
2023-02-15T13:27:52.364Z,12.37
2023-02-15T13:30:20.742Z,12.23
2023-02-15T13:32:43.435Z,11.07
2023-02-15T13:35:06.592Z,11.27
2023-02-15T13:37:46.688Z,11.00
2023-02-15T13:40:15.488Z,10.80
2023-02-15T13:42:38.747Z,10.80
2023-02-15T13:45:04.677Z,11.07
2023-02-15T13:47:29.773Z,11.13
2023-02-15T13:49:56.780Z,11.93
2023-02-15T13:52:21.606Z,12.00
2023-02-15T13:54:53.811Z,12.13
2023-02-15T13:57:27.108Z,11.27
2023-02-15T13:59:54.556Z,11.13
2023-02-15T14:02:34.820Z,11.30
2023-02-15T14:05:02.674Z,11.37
2023-02-15T14:07:46.678Z,11.43
2023-02-15T14:10:25.053Z,11.03
2023-02-15T14:12:54.767Z,10.20
2023-02-15T14:15:24.090Z,10.00
2023-02-15T14:17:51.378Z,10.50
2023-02-15T14:20:19.588Z,9.87
2023-02-15T14:22:42.848Z,10.33
2023-02-15T14:25:20.874Z,9.73
2023-02-15T14:27:45.536Z,9.73
2023-02-15T14:30:14.946Z,10.10
2023-02-15T14:32:38.779Z,9.97
2023-02-15T14:35:01.481Z,9.80
2023-02-15T14:37:25.611Z,9.93
2023-02-15T14:40:06.854Z,9.40
2023-02-15T14:42:33.522Z,7.93
2023-02-15T14:44:59.929Z,8.20
2023-02-15T14:47:24.561Z,7.57
2023-02-15T14:49:45.773Z,7.70
2023-02-15T14:52:09.301Z,7.87
2023-02-15T14:54:49.550Z,8.23
2023-02-15T14:57:24.609Z,8.20
2023-02-15T14:59:47.559Z,8.43
2023-02-15T15:02:14.093Z,8.40
2023-02-15T15:04:37.704Z,8.37
2023-02-15T15:07:01.190Z,8.60
2023-02-15T15:09:23.965Z,8.30
2023-02-15T15:11:47.120Z,8.30
2023-02-15T15:14:09.923Z,9.10
2023-02-15T15:16:53.201Z,9.23
2023-02-15T15:19:50.807Z,8.17
2023-02-15T15:22:20.602Z,9.23
2023-02-15T15:24:48.911Z,8.50
2023-02-15T15:27:24.899Z,9.17
2023-02-15T15:29:45.938Z,8.63
2023-02-15T15:32:09.644Z,8.97
2023-02-15T15:34:48.759Z,8.80
2023-02-15T15:37:28.644Z,8.63
2023-02-15T15:40:01.450Z,8.43
2023-02-15T15:42:32.270Z,8.97
2023-02-15T15:45:11.940Z,8.50
2023-02-15T15:47:42.286Z,9.10
2023-02-15T15:50:07.344Z,8.70
2023-02-15T15:52:29.530Z,11.57
2023-02-15T15:54:53.408Z,12.53
2023-02-15T15:57:17.817Z,13.60
2023-02-15T15:59:45.252Z,12.80
2023-02-15T16:02:07.087Z,15.17
2023-02-15T16:04:30.707Z,14.67
2023-02-15T16:06:51.909Z,15.50
2023-02-15T16:09:18.719Z,16.47
2023-02-15T16:11:41.479Z,17.33
2023-02-15T16:14:04.276Z,18.17
2023-02-15T16:16:29.024Z,18.40
2023-02-15T16:18:50.721Z,20.30
2023-02-15T16:21:18.399Z,20.80
2023-02-15T16:24:03.507Z,23.17
2023-02-15T16:26:38.783Z,24.73
2023-02-15T16:29:00.435Z,26.83
2023-02-15T16:31:24.320Z,24.90
2023-02-15T16:33:46.381Z,26.10
2023-02-15T16:36:08.810Z,26.17
2023-02-15T16:38:45.800Z,26.47
2023-02-15T16:41:06.822Z,27.17
2023-02-15T16:43:28.913Z,25.90
2023-02-15T16:45:50.206Z,26.37
2023-02-15T16:48:15.679Z,25.43
2023-02-15T16:50:38.392Z,23.83
2023-02-15T16:52:59.564Z,24.40
2023-02-15T16:55:25.070Z,22.60
2023-02-15T16:57:46.372Z,23.67
2023-02-15T17:00:09.688Z,22.80
2023-02-15T17:02:54.436Z,22.40
2023-02-15T17:05:20.790Z,22.33
2023-02-15T17:07:42.755Z,21.23
2023-02-15T17:10:04.405Z,21.80
2023-02-15T17:12:44.385Z,21.57
2023-02-15T17:15:05.585Z,21.33
2023-02-15T17:17:26.867Z,21.53
2023-02-15T17:19:50.014Z,22.67
2023-02-15T17:22:19.474Z,22.77
2023-02-15T17:24:42.342Z,22.77
2023-02-15T17:27:06.067Z,23.33
2023-02-15T17:29:30.739Z,23.00
2023-02-15T17:31:53.415Z,22.57
2023-02-15T17:34:37.901Z,21.83
2023-02-15T17:37:03.341Z,23.57
2023-02-15T17:39:24.574Z,23.53
2023-02-15T17:41:46.285Z,24.47
2023-02-15T17:44:09.386Z,24.47
2023-02-15T17:46:32.877Z,23.20
2023-02-15T17:48:55.701Z,22.73
2023-02-15T17:51:17.358Z,22.70
2023-02-15T17:53:40.630Z,24.43
2023-02-15T17:56:00.740Z,24.53
2023-02-15T17:58:22.431Z,23.30
2023-02-15T18:01:02.312Z,24.87
2023-02-15T18:03:41.326Z,23.30
2023-02-15T18:06:19.959Z,25.03
2023-02-15T18:09:00.091Z,23.33
2023-02-15T18:11:39.989Z,24.73
2023-02-15T18:14:02.177Z,23.27
2023-02-15T18:16:24.806Z,24.00
2023-02-15T18:18:46.362Z,24.87
2023-02-15T18:21:11.994Z,24.13
2023-02-15T18:23:33.394Z,23.90
2023-02-15T18:25:56.006Z,25.00
2023-02-15T18:28:17.627Z,25.10
2023-02-15T18:30:42.359Z,24.77
2023-02-15T18:33:03.883Z,26.60
2023-02-15T18:35:26.352Z,24.47
2023-02-15T18:37:48.145Z,26.87
2023-02-15T18:40:15.308Z,31.17
2023-02-15T18:42:39.648Z,26.10
2023-02-15T18:45:02.860Z,25.47
2023-02-15T18:47:23.950Z,29.13
2023-02-15T18:49:45.106Z,30.20
2023-02-15T18:52:06.589Z,28.03
2023-02-15T18:54:27.425Z,26.07
2023-02-15T18:56:52.525Z,20.50
2023-02-15T18:59:17.591Z,20.87
2023-02-15T19:01:38.735Z,19.03
2023-02-15T19:03:59.919Z,19.17
2023-02-15T19:06:23.089Z,16.10
2023-02-15T19:08:45.265Z,14.13
2023-02-15T19:11:06.420Z,18.27
2023-02-15T19:13:27.392Z,17.50
2023-02-15T19:15:50.025Z,18.67
2023-02-15T19:18:11.710Z,16.57
2023-02-15T19:20:33.774Z,15.37
2023-02-15T19:22:56.299Z,14.83
2023-02-15T19:25:19.941Z,13.93
2023-02-15T19:27:41.211Z,14.83
2023-02-15T19:30:03.770Z,18.10
2023-02-15T19:32:27.957Z,19.63
2023-02-15T19:34:49.144Z,18.97
2023-02-15T19:37:16.888Z,19.37
2023-02-15T19:39:39.436Z,19.27
2023-02-15T19:42:00.577Z,15.70
2023-02-15T19:44:21.913Z,14.47
2023-02-15T19:46:43.252Z,14.53
2023-02-15T19:49:05.890Z,13.77
2023-02-15T19:51:27.758Z,13.40
2023-02-15T19:53:49.450Z,13.77
2023-02-15T19:56:12.266Z,13.93
2023-02-15T19:58:33.705Z,13.63
2023-02-15T20:00:54.950Z,18.10
2023-02-15T20:03:16.563Z,17.83
2023-02-15T20:05:39.384Z,17.10
2023-02-15T20:08:00.939Z,15.93
2023-02-15T20:10:23.717Z,15.20
2023-02-15T20:12:44.954Z,18.93
2023-02-15T20:15:17.513Z,21.20
2023-02-15T20:17:38.924Z,19.73
2023-02-15T20:20:00.733Z,17.83
2023-02-15T20:22:24.927Z,19.80
2023-02-15T20:24:46.030Z,19.30
2023-02-15T20:27:10.954Z,20.47
2023-02-15T20:29:33.047Z,22.90
2023-02-15T20:31:55.590Z,25.90
2023-02-15T20:34:17.145Z,25.13
2023-02-15T20:36:38.988Z,19.23
2023-02-15T20:39:02.550Z,20.23
2023-02-15T20:41:40.487Z,23.23
2023-02-15T20:44:01.582Z,23.07
2023-02-15T20:46:22.836Z,23.07
2023-02-15T20:48:44.044Z,24.07
2023-02-15T20:51:05.764Z,21.83
2023-02-15T20:53:27.262Z,20.37
2023-02-15T20:55:49.620Z,20.50
2023-02-15T20:58:20.014Z,18.27
2023-02-15T21:00:41.506Z,19.03
2023-02-15T21:03:02.832Z,19.40
2023-02-15T21:05:25.434Z,18.30
2023-02-15T21:07:46.809Z,19.37
2023-02-15T21:10:09.089Z,20.07
2023-02-15T21:12:31.845Z,22.20
2023-02-15T21:14:53.141Z,22.80
2023-02-15T21:17:15.327Z,20.97
2023-02-15T21:19:38.521Z,19.57
2023-02-15T21:22:00.951Z,20.07
2023-02-15T21:24:24.234Z,19.73
2023-02-15T21:26:46.769Z,21.93
2023-02-15T21:29:10.484Z,22.27
2023-02-15T21:31:32.333Z,24.07
2023-02-15T21:33:53.790Z,23.23
2023-02-15T21:36:16.099Z,22.73
2023-02-15T21:38:37.326Z,22.10
2023-02-15T21:41:19.033Z,21.67
2023-02-15T21:43:57.767Z,21.17
2023-02-15T21:46:38.570Z,21.97
2023-02-15T21:48:59.585Z,20.67
2023-02-15T21:51:38.378Z,21.83
2023-02-15T21:53:59.817Z,21.70
2023-02-15T21:56:22.028Z,21.27
2023-02-15T21:58:43.514Z,20.73
2023-02-15T22:01:05.713Z,21.23
2023-02-15T22:03:31.306Z,20.97
2023-02-15T22:05:52.677Z,20.57
2023-02-15T22:08:14.163Z,21.20
2023-02-15T22:10:35.033Z,23.03
2023-02-15T22:12:56.557Z,23.70
2023-02-15T22:15:19.100Z,22.90
2023-02-15T22:17:40.314Z,23.00
2023-02-15T22:20:03.602Z,24.50
2023-02-15T22:22:25.936Z,24.77
2023-02-15T22:24:47.120Z,22.50
2023-02-15T22:27:08.368Z,24.20
2023-02-15T22:29:29.398Z,20.70
2023-02-15T22:31:50.915Z,20.27
2023-02-15T22:34:23.799Z,20.57
2023-02-15T22:36:46.192Z,19.47
2023-02-15T22:39:07.350Z,20.63
2023-02-15T22:41:30.492Z,19.97
2023-02-15T22:43:51.558Z,19.77
2023-02-15T22:46:15.627Z,19.27
2023-02-15T22:48:36.729Z,19.27
2023-02-15T22:50:58.160Z,19.17
2023-02-15T22:53:20.534Z,18.43
2023-02-15T22:55:41.746Z,19.37
2023-02-15T22:58:03.196Z,19.00
2023-02-15T23:00:26.605Z,18.43
2023-02-15T23:02:47.737Z,19.20
2023-02-15T23:05:15.303Z,18.77
2023-02-15T23:07:37.267Z,19.07
2023-02-15T23:09:59.646Z,18.80
2023-02-15T23:12:23.981Z,19.57
2023-02-15T23:14:45.619Z,20.40
2023-02-15T23:17:06.742Z,19.10
2023-02-15T23:19:28.860Z,19.10
2023-02-15T23:21:50.341Z,19.17
2023-02-15T23:24:16.380Z,20.73
2023-02-15T23:26:38.982Z,20.97
2023-02-15T23:29:01.165Z,20.23
2023-02-15T23:31:23.686Z,19.93
2023-02-15T23:33:45.419Z,20.60
2023-02-15T23:36:06.885Z,20.43
2023-02-15T23:38:29.061Z,27.77
2023-02-15T23:41:09.116Z,20.20
2023-02-15T23:43:31.786Z,18.77
2023-02-15T23:45:52.615Z,18.77
2023-02-15T23:48:32.092Z,19.90
2023-02-15T23:50:53.209Z,19.20
2023-02-15T23:53:14.398Z,20.07
2023-02-15T23:55:37.327Z,19.87
2023-02-15T23:57:58.719Z,18.90
